Time;durP1;ratioP1;P1;durP2;ratioP2;P2;SDS_P1;SDS_P2;PMS_P1;PMS_P2;Temp;Humidity;BMP_temperature;BMP_pressure;BME280_temperature;BME280_humidity;BME280_pressure;Samples;Min_cycle;Max_cycle;Signal;HPM_P1;HPM_P2
2023/02/23 00:00:27;;;;;;;17.70;8.03;;;12.80;99.90;;;12.93;70.05;100823.81;6121272;22;99860;-55
2023/02/23 00:02:57;;;;;;;13.87;7.57;;;12.70;99.90;;;12.92;70.36;100816.78;6124823;22;98845;-56
2023/02/23 00:05:25;;;;;;;13.93;7.73;;;12.70;99.90;;;12.91;69.60;100820.38;6119976;22;97344;-55
2023/02/23 00:07:51;;;;;;;13.27;6.77;;;12.70;99.90;;;12.92;70.07;100822.09;6123352;22;97661;-57
2023/02/23 00:10:20;;;;;;;13.07;6.60;;;12.80;99.90;;;12.93;70.19;100827.31;6119113;22;97438;-56
2023/02/23 00:12:48;;;;;;;13.77;8.00;;;12.80;99.90;;;12.93;69.85;100818.50;6125699;22;97320;-56
2023/02/23 00:15:14;;;;;;;14.40;7.77;;;12.80;99.90;;;12.91;69.65;100817.72;6119857;22;97187;-55
2023/02/23 00:17:40;;;;;;;12.73;7.87;;;12.70;99.90;;;12.88;69.61;100826.66;6125622;22;97218;-55
2023/02/23 00:20:10;;;;;;;14.10;8.43;;;12.70;99.90;;;12.87;69.86;100824.06;6093212;22;97723;-56
2023/02/23 00:22:40;;;;;;;15.83;7.47;;;12.70;99.90;;;12.86;70.09;100817.03;6123018;22;98057;-59
2023/02/23 00:25:09;;;;;;;11.07;6.47;;;12.70;99.90;;;12.88;70.24;100823.16;6118926;22;97398;-56
2023/02/23 00:27:43;;;;;;;12.33;7.60;;;12.70;99.90;;;12.90;70.20;100814.22;6123197;22;97774;-53
2023/02/23 00:30:15;;;;;;;14.07;7.03;;;12.70;99.90;;;12.91;70.09;100815.06;6118642;22;100071;-56
2023/02/23 00:32:41;;;;;;;15.77;7.87;;;12.80;99.90;;;12.91;69.88;100815.94;6124688;22;97850;-54
2023/02/23 00:35:15;;;;;;;18.33;7.93;;;12.80;99.90;;;12.93;69.82;100814.06;6117268;22;96993;-55
2023/02/23 00:37:46;;;;;;;12.50;6.50;;;12.80;99.90;;;12.96;69.65;100813.09;6121145;22;97082;-57
2023/02/23 00:40:15;;;;;;;15.43;7.80;;;12.80;99.90;;;12.98;69.65;100812.09;6092232;22;97870;-58
2023/02/23 00:42:46;;;;;;;14.93;7.57;;;12.80;99.90;;;12.98;70.10;100805.94;6120488;22;97085;-52
2023/02/23 00:45:13;;;;;;;18.37;8.33;;;12.80;99.90;;;12.95;69.76;100803.41;6110072;22;97257;-58
2023/02/23 00:47:42;;;;;;;13.00;7.50;;;12.80;99.90;;;12.93;69.85;100807.91;6115999;22;97149;-59
2023/02/23 00:50:14;;;;;;;17.03;8.50;;;12.70;99.90;;;12.96;70.06;100797.19;6104880;22;97941;-55
2023/02/23 00:52:42;;;;;;;13.70;6.87;;;12.80;99.90;;;12.98;69.79;100803.28;6114659;22;97166;-58
2023/02/23 00:55:10;;;;;;;13.73;7.80;;;12.80;99.90;;;12.97;69.90;100806.84;6112958;22;97524;-58
2023/02/23 00:57:36;;;;;;;20.73;8.37;;;12.80;99.90;;;12.96;69.98;100807.78;6117217;22;97252;-59
2023/02/23 01:00:17;;;;;;;12.90;7.07;;;12.80;99.90;;;12.96;70.16;100802.50;6119843;22;97081;-57
2023/02/23 01:02:43;;;;;;;15.93;8.17;;;12.80;99.90;;;12.93;70.31;100792.91;6114587;22;100750;-56
2023/02/23 01:05:12;;;;;;;13.23;7.10;;;12.80;99.90;;;12.93;69.90;100803.50;6113286;22;108523;-56
2023/02/23 01:07:39;;;;;;;15.33;7.73;;;12.80;99.90;;;12.92;70.32;100801.78;6118452;22;97740;-57
2023/02/23 01:10:18;;;;;;;16.67;8.60;;;12.70;99.90;;;12.93;70.32;100799.97;6117503;22;97842;-58
2023/02/23 01:12:50;;;;;;;14.33;8.00;;;12.80;99.90;;;12.93;69.98;100800.84;6095726;22;97772;-53
2023/02/23 01:15:19;;;;;;;13.47;7.10;;;12.80;99.90;;;12.95;69.82;100795.47;6115069;22;97645;-57
2023/02/23 01:17:45;;;;;;;12.37;7.20;;;12.80;99.90;;;12.93;70.65;100792.03;6120016;22;97376;-59
2023/02/23 01:20:18;;;;;;;11.07;6.90;;;12.80;99.90;;;12.91;70.33;100794.75;6115390;22;97348;-55
2023/02/23 01:22:50;;;;;;;14.70;7.30;;;12.80;99.90;;;12.90;70.34;100802.75;6092012;22;98629;-50
2023/02/23 01:25:18;;;;;;;12.67;7.00;;;12.80;99.90;;;12.90;70.55;100803.63;6113304;22;97778;-56
2023/02/23 01:27:44;;;;;;;15.30;8.37;;;12.80;99.90;;;12.89;70.39;100801.03;6118584;22;102465;-59
2023/02/23 01:30:13;;;;;;;12.97;8.17;;;12.70;99.90;;;12.89;70.76;100801.03;6114469;22;98977;-50
2023/02/23 01:32:40;;;;;;;13.37;7.23;;;12.70;99.90;;;12.86;69.91;100798.50;6143228;22;96863;-53
2023/02/23 01:35:11;;;;;;;12.20;7.20;;;12.70;99.90;;;12.84;70.27;100797.72;6139235;22;97079;-54
2023/02/23 01:37:40;;;;;;;16.13;7.37;;;12.70;99.90;;;12.82;70.15;100801.28;6143638;22;97592;-55
2023/02/23 01:40:14;;;;;;;10.40;6.27;;;12.70;99.90;;;12.80;70.52;100799.63;6139701;22;98450;-49
2023/02/23 01:42:44;;;;;;;13.77;7.20;;;12.70;99.90;;;12.78;71.03;100791.78;6142394;22;98151;-55
2023/02/23 01:45:34;;;;;;;11.23;7.20;;;12.60;99.90;;;12.77;71.32;100792.69;6139750;22;97238;-56
2023/02/23 01:48:13;;;;;;;18.53;8.97;;;12.60;99.90;;;12.78;71.46;100789.13;6143345;22;97258;-59
2023/02/23 01:51:03;;;;;;;19.33;7.43;;;12.70;99.90;;;12.80;71.41;100797.00;6138508;22;100789;-56
2023/02/23 01:53:35;;;;;;;15.07;8.30;;;12.70;99.90;;;12.80;71.13;100797.84;6111872;22;104244;-51
2023/02/23 01:56:10;;;;;;;14.07;7.20;;;12.70;99.90;;;12.81;71.32;100791.63;6145996;22;97533;-52
2023/02/23 01:58:38;;;;;;;13.37;6.50;;;12.70;99.90;;;12.81;71.22;100796.94;6139286;22;97247;-51
2023/02/23 02:01:04;;;;;;;15.97;7.60;;;12.70;99.90;;;12.82;71.27;100796.00;6113443;22;98249;-57
2023/02/23 02:03:54;;;;;;;15.67;8.00;;;12.70;99.90;;;12.85;71.25;100799.44;6115266;22;99720;-50
2023/02/23 02:06:23;;;;;;;16.37;9.33;;;12.70;99.90;;;12.84;71.00;100798.56;6113257;22;97536;-49
2023/02/23 02:08:54;;;;;;;17.53;7.80;;;12.70;99.90;;;12.87;70.95;100792.28;6116175;22;97343;-56
2023/02/23 02:11:24;;;;;;;9.97;5.97;;;12.70;99.90;;;12.88;70.52;100791.38;6111463;22;97091;-55
2023/02/23 02:14:01;;;;;;;13.00;7.20;;;12.70;99.90;;;12.88;70.68;100794.03;6143666;22;97478;-55
2023/02/23 02:16:48;;;;;;;13.10;7.67;;;12.70;99.90;;;12.89;70.67;100793.09;6139831;22;97167;-55
2023/02/23 02:19:52;;;;;;;14.83;9.13;;;12.70;99.90;;;12.91;70.51;100793.91;6139203;22;97547;-59
2023/02/23 02:22:17;;;;;;;14.13;7.30;;;12.70;99.90;;;12.89;70.38;100795.75;6138780;22;97354;-50
2023/02/23 02:25:02;;;;;;;13.57;7.67;;;12.70;99.90;;;12.88;70.58;100794.03;6143387;22;97127;-51
2023/02/23 02:28:03;;;;;;;17.37;7.77;;;12.70;99.90;;;12.87;70.71;100787.00;6136505;22;97433;-56
2023/02/23 02:30:56;;;;;;;13.60;7.63;;;12.70;99.90;;;12.86;70.54;100787.91;6136827;22;98132;-58
2023/02/23 02:34:07;;;;;;;15.00;7.90;;;12.70;99.90;;;13.06;64.89;100802.03;6138497;22;98322;-56
2023/02/23 02:37:15;;;;;;;15.90;8.33;;;12.80;99.90;;;13.08;68.36;100797.53;6139085;22;102384;-49
2023/02/23 02:40:17;;;;;;;17.47;8.53;;;12.90;99.90;;;13.03;69.11;100798.66;5965218;23;97133;-54
2023/02/23 02:43:29;;;;;;;16.20;8.10;;;12.80;99.90;;;13.02;68.56;100796.94;5987575;23;97858;-55
2023/02/23 02:46:17;;;;;;;13.17;7.77;;;12.80;99.90;;;12.96;69.58;100786.59;6032490;22;100233;-56
2023/02/23 02:48:56;;;;;;;16.07;8.13;;;12.80;99.90;;;12.93;69.77;100776.16;6112612;22;100493;-57
2023/02/23 02:51:50;;;;;;;16.87;8.70;;;12.70;99.90;;;12.91;69.99;100783.31;6113021;22;98251;-56
2023/02/23 02:54:33;;;;;;;15.00;7.07;;;12.70;99.90;;;12.89;70.00;100782.50;6111375;22;97180;-53
2023/02/23 02:57:03;;;;;;;12.40;7.80;;;12.70;99.90;;;12.87;69.69;100779.03;6114043;22;96992;-55
2023/02/23 04:18:29;;;;;;;15.90;8.63;;;12.50;99.90;;;12.62;71.13;100803.94;6120492;22;97364;-49
2023/02/23 04:20:56;;;;;;;17.67;8.70;;;12.50;99.90;;;12.58;70.60;100804.97;6119220;22;97071;-52
2023/02/23 04:23:23;;;;;;;17.53;8.20;;;12.50;99.90;;;12.57;70.99;100805.88;6139424;22;102562;-54
2023/02/23 04:28:28;;;;;;;15.83;8.90;;;12.40;99.90;;;12.54;71.17;100808.66;6138790;22;97444;-55
2023/02/23 04:30:53;;;;;;;15.33;8.33;;;12.40;99.90;;;12.55;71.37;100807.75;6139595;22;97045;-47
2023/02/23 04:33:21;;;;;;;14.53;8.57;;;12.40;99.90;;;12.56;71.38;100809.47;6135955;22;96604;-45
2023/02/23 04:35:47;;;;;;;17.53;8.40;;;12.40;99.90;;;12.56;71.41;100809.47;6140238;22;99526;-46
2023/02/23 04:38:13;;;;;;;14.30;7.93;;;12.40;99.90;;;12.57;70.98;100813.81;6135274;22;98126;-46
2023/02/23 04:40:39;;;;;;;15.30;8.63;;;12.40;99.90;;;12.56;71.18;100812.09;6113479;22;107853;-44
2023/02/23 04:43:05;;;;;;;15.63;8.43;;;12.40;99.90;;;12.55;71.24;100810.38;6139487;22;97423;-47
2023/02/23 04:45:31;;;;;;;18.43;9.10;;;12.40;99.90;;;12.56;71.56;100809.47;6136367;22;110011;-45
2023/02/23 04:47:57;;;;;;;17.33;9.00;;;12.40;99.90;;;12.56;71.40;100809.47;6112061;22;97628;-46
2023/02/23 04:50:23;;;;;;;18.27;9.57;;;12.40;99.90;;;12.55;71.13;100813.03;6135431;22;97867;-47
2023/02/23 04:52:49;;;;;;;14.40;8.30;;;12.40;99.90;;;12.53;71.29;100814.88;6140160;22;97597;-46
2023/02/23 04:55:19;;;;;;;18.07;8.77;;;12.40;99.90;;;12.55;71.02;100813.03;6135491;22;97317;-45
2023/02/23 04:57:45;;;;;;;18.33;9.53;;;12.40;99.90;;;12.55;70.97;100813.03;6137578;22;99016;-45
2023/02/23 05:00:13;;;;;;;17.60;8.60;;;12.40;99.90;;;12.53;70.75;100814.88;6135030;22;97481;-44
2023/02/23 05:02:39;;;;;;;15.57;8.77;;;12.40;99.90;;;12.53;70.84;100812.22;6139417;22;97234;-48
2023/02/23 05:05:06;;;;;;;21.37;9.70;;;12.40;99.90;;;12.55;70.19;100818.31;6140125;22;97132;-45
2023/02/23 05:07:32;;;;;;;14.37;7.93;;;12.40;99.90;;;12.56;70.02;100813.88;6107162;22;103488;-46
2023/02/23 05:09:58;;;;;;;15.93;7.87;;;12.40;99.90;;;12.56;70.33;100814.75;6139065;22;98673;-43
2023/02/23 05:12:24;;;;;;;15.40;8.70;;;12.40;99.90;;;12.56;70.22;100814.75;6133837;22;98110;-45
2023/02/23 05:14:50;;;;;;;17.20;9.33;;;12.40;99.90;;;12.58;70.05;100815.53;6132238;22;97434;-49
2023/02/23 05:17:16;;;;;;;15.57;8.57;;;12.40;99.90;;;12.56;69.99;100820.03;6136060;22;98469;-45
2023/02/23 05:19:41;;;;;;;16.07;8.63;;;12.40;99.90;;;12.57;70.08;100820.91;6138470;22;97934;-45
2023/02/23 05:22:11;;;;;;;17.83;9.67;;;12.40;99.90;;;12.57;70.08;100821.75;6139814;22;97129;-48
2023/02/23 05:24:38;;;;;;;19.53;10.20;;;12.40;99.90;;;12.56;70.28;100827.13;6136182;22;98231;-45
2023/02/23 05:27:06;;;;;;;19.90;10.03;;;12.40;99.90;;;12.56;70.03;100822.69;6141843;22;98240;-46
2023/02/23 05:29:31;;;;;;;22.23;9.87;;;12.40;99.90;;;12.55;70.21;100818.31;6108625;22;97530;-46
2023/02/23 05:31:57;;;;;;;18.97;9.47;;;12.40;99.90;;;12.55;69.82;100834.19;6141645;22;97298;-45
2023/02/23 05:34:23;;;;;;;21.00;8.97;;;12.40;99.90;;;12.54;70.20;100827.19;6111246;22;97424;-45
2023/02/23 05:36:49;;;;;;;27.70;11.03;;;12.40;99.90;;;12.56;69.61;100830.63;6141518;22;97539;-46
2023/02/23 05:39:14;;;;;;;21.47;9.63;;;12.40;99.90;;;12.59;69.29;100834.97;6136280;22;116042;-47
2023/02/23 05:41:40;;;;;;;19.80;9.73;;;12.40;99.90;;;12.58;69.35;100834.06;6139046;22;102846;-48
2023/02/23 05:44:06;;;;;;;21.87;10.10;;;12.40;99.90;;;12.56;68.78;100835.91;6141227;22;97317;-45
2023/02/23 05:46:32;;;;;;;22.00;9.23;;;12.40;99.90;;;12.56;69.60;100838.56;6137202;22;103102;-47
2023/02/23 05:49:00;;;;;;;23.20;9.63;;;12.40;99.90;;;12.56;69.39;100835.91;6140537;22;97713;-47
2023/02/23 05:51:28;;;;;;;17.53;9.03;;;12.40;99.90;;;12.54;69.13;100842.19;6135993;22;97782;-44
2023/02/23 05:53:54;;;;;;;22.90;9.90;;;12.40;99.90;;;12.52;69.49;100836.97;6140646;22;97064;-47
2023/02/23 05:56:20;;;;;;;22.07;10.40;;;12.40;99.90;;;12.52;69.49;100839.63;6137609;22;97257;-47
2023/02/23 05:58:54;;;;;;;17.90;8.87;;;12.40;99.90;;;12.66;67.35;100845.22;6139718;22;97319;-47
2023/02/23 06:01:21;;;;;;;21.23;11.70;;;12.40;99.90;;;12.75;68.06;100844.84;6136906;22;97610;-46
2023/02/23 06:03:47;;;;;;;24.57;10.20;;;12.60;99.90;;;12.84;66.28;100851.53;6140667;22;97349;-47
2023/02/23 06:06:14;;;;;;;20.40;8.57;;;12.60;99.90;;;12.73;68.51;100848.44;6138208;22;98038;-49
2023/02/23 06:08:40;;;;;;;20.27;8.73;;;12.50;99.90;;;12.68;68.71;100839.84;6141090;22;97536;-45
2023/02/23 06:11:07;;;;;;;20.63;9.90;;;12.50;99.90;;;12.62;69.11;100846.28;6139785;22;96947;-48
2023/02/23 06:13:33;;;;;;;21.13;9.57;;;12.50;99.90;;;12.60;69.19;100848.13;6136799;22;97623;-45
2023/02/23 06:15:59;;;;;;;21.37;9.77;;;12.40;99.90;;;12.59;68.89;100854.34;6141072;22;97765;-45
2023/02/23 06:18:26;;;;;;;24.77;10.17;;;12.40;99.90;;;12.55;69.29;100850.06;6137055;22;97717;-46
2023/02/23 06:20:52;;;;;;;21.70;10.50;;;12.40;99.90;;;12.54;69.11;100852.78;6139123;22;97198;-46
2023/02/23 06:23:18;;;;;;;23.63;11.50;;;12.30;99.90;;;12.53;69.38;100849.28;6136553;22;96986;-46
2023/02/23 06:25:46;;;;;;;19.67;9.37;;;12.40;99.90;;;12.51;69.58;100848.47;6141651;22;97488;-51
2023/02/23 06:28:12;;;;;;;18.40;10.13;;;12.30;99.90;;;12.47;69.64;100857.47;6136431;22;97808;-45
2023/02/23 06:30:39;;;;;;;21.83;11.70;;;12.30;99.90;;;12.48;69.42;100865.34;6141060;22;97228;-45
2023/02/23 06:33:05;;;;;;;20.77;10.10;;;12.30;99.90;;;12.47;69.69;100863.63;6141755;22;97308;-47
2023/02/23 06:35:33;;;;;;;23.13;11.10;;;12.30;99.90;;;12.46;69.65;100867.19;6136272;22;97182;-46
2023/02/23 06:37:59;;;;;;;20.30;9.83;;;12.30;99.90;;;12.47;69.68;100868.06;6138430;22;96917;-46
2023/02/23 06:40:26;;;;;;;21.53;10.57;;;12.30;99.90;;;12.47;69.86;100874.22;6136867;22;97527;-45
2023/02/23 06:42:52;;;;;;;22.67;11.07;;;12.30;99.90;;;12.48;69.65;100875.06;6139967;22;96973;-48
2023/02/23 06:45:18;;;;;;;20.33;10.77;;;12.30;99.90;;;12.50;69.60;100881.16;6135252;22;114758;-43
2023/02/23 06:47:45;;;;;;;18.00;9.40;;;12.30;99.90;;;12.49;69.96;100876.78;6141252;22;97701;-48
2023/02/23 06:50:11;;;;;;;18.53;10.13;;;12.30;99.90;;;12.46;69.41;100879.56;6141917;22;96884;-48
2023/02/23 06:52:37;;;;;;;22.47;9.60;;;12.30;99.90;;;12.45;70.27;100880.50;6117982;22;113588;-45
2023/02/23 06:55:03;;;;;;;23.33;10.00;;;12.30;99.90;;;12.45;70.14;100883.13;6146081;22;97635;-44
2023/02/23 06:57:29;;;;;;;19.67;9.63;;;12.30;99.90;;;12.44;70.23;100884.03;6142132;22;97208;-43
2023/02/23 06:59:55;;;;;;;23.40;10.50;;;12.30;99.90;;;12.43;70.41;100892.91;6146168;22;105669;-45
2023/02/23 07:02:21;;;;;;;20.40;10.40;;;12.30;99.90;;;12.43;70.62;100891.09;6142261;22;96987;-47
2023/02/23 07:04:47;;;;;;;23.80;10.43;;;12.30;99.90;;;12.44;70.71;100894.63;6147143;22;97369;-45
2023/02/23 07:07:13;;;;;;;19.27;9.97;;;12.30;99.90;;;12.44;70.47;100898.16;6143645;22;97235;-48
2023/02/23 07:09:40;;;;;;;18.20;10.00;;;12.30;99.90;;;12.45;70.54;100897.22;6148224;22;97190;-48
2023/02/23 07:12:06;;;;;;;30.77;10.53;;;12.30;99.90;;;12.47;70.14;100905.09;6148995;22;96950;-49
2023/02/23 07:14:32;;;;;;;19.90;9.17;;;12.30;99.90;;;12.46;69.97;100903.38;6141977;22;97541;-46
2023/02/23 07:16:58;;;;;;;23.70;10.43;;;12.30;99.90;;;12.44;69.93;100911.38;6145647;22;97630;-47
2023/02/23 07:19:24;;;;;;;20.80;10.07;;;12.30;99.90;;;12.44;69.85;100914.03;6144376;22;97091;-47
2023/02/23 07:21:50;;;;;;;20.67;9.90;;;12.30;99.90;;;12.43;69.61;100911.41;6146882;22;97421;-50
2023/02/23 07:24:16;;;;;;;15.87;9.00;;;12.30;99.90;;;12.39;69.79;100917.75;6142011;22;98077;-47
2023/02/23 07:26:42;;;;;;;16.83;9.23;;;12.30;99.90;;;12.61;66.33;100918.66;6146131;22;99266;-49
2023/02/23 07:29:11;;;;;;;21.23;9.40;;;12.50;99.90;;;12.72;67.15;100921.69;6143824;22;97623;-57
2023/02/23 07:31:37;;;;;;;20.27;9.97;;;12.70;99.90;;;12.77;66.88;100930.34;6146335;22;97590;-48
2023/02/23 07:34:03;;;;;;;21.10;9.90;;;12.70;99.90;;;12.89;66.13;100925.47;6145281;22;97562;-47
2023/02/23 07:36:29;;;;;;;14.10;7.93;;;12.80;99.90;;;12.91;66.51;100931.56;6143957;22;97255;-48
2023/02/23 07:38:54;;;;;;;17.83;8.80;;;12.80;99.90;;;12.92;66.23;100928.00;6143050;22;97237;-45
2023/02/23 07:41:21;;;;;;;12.90;7.53;;;12.80;99.90;;;13.04;65.21;100938.09;6112182;22;108698;-44
2023/02/23 07:43:46;;;;;;;18.83;9.77;;;12.80;99.90;;;12.91;66.53;100937.72;6143700;22;98099;-48
2023/02/23 07:46:14;;;;;;;18.43;9.40;;;12.80;99.90;;;12.76;67.44;100939.22;6141334;22;97985;-48
2023/02/23 07:48:43;;;;;;;18.30;9.17;;;12.60;99.90;;;12.69;68.09;100937.72;6120255;22;97123;-45
2023/02/23 07:51:11;;;;;;;19.87;9.10;;;12.50;99.90;;;12.80;66.21;100940.78;6141902;22;98108;-47
2023/02/23 07:53:38;;;;;;;19.33;8.80;;;12.60;99.90;;;12.76;66.95;100933.91;6142146;22;98551;-47
2023/02/23 07:56:05;;;;;;;16.50;8.90;;;12.60;99.90;;;12.77;66.89;100946.22;6144316;22;97397;-46
2023/02/23 07:58:31;;;;;;;18.30;9.13;;;12.60;99.90;;;12.75;67.48;100942.78;6113337;22;97256;-48
2023/02/23 08:00:57;;;;;;;16.00;8.57;;;12.60;99.90;;;12.69;68.22;100950.94;6144850;22;97346;-46
2023/02/23 08:03:23;;;;;;;21.23;9.03;;;12.50;99.90;;;12.63;68.10;100947.69;6139720;22;113043;-46
2023/02/23 08:05:49;;;;;;;17.50;8.47;;;12.50;99.90;;;12.57;68.62;100954.06;6146953;22;98285;-47
2023/02/23 08:08:15;;;;;;;23.33;9.50;;;12.40;99.90;;;12.49;68.74;100951.75;6143346;22;96859;-46
2023/02/23 08:10:41;;;;;;;18.83;8.20;;;12.40;99.90;;;12.53;68.54;100949.81;6149398;22;101239;-47
2023/02/23 08:13:07;;;;;;;22.43;8.20;;;12.40;99.90;;;12.56;67.00;100955.00;6148634;22;97806;-45
2023/02/23 08:15:32;;;;;;;13.47;7.90;;;12.40;99.90;;;12.49;68.77;100957.03;6143928;22;116900;-44
2023/02/23 08:17:58;;;;;;;20.27;9.30;;;12.40;99.90;;;12.49;68.76;100958.81;6148749;22;97301;-47
2023/02/23 08:20:26;;;;;;;18.50;7.77;;;12.30;99.90;;;12.49;69.03;100956.16;6147347;22;96610;-46
2023/02/23 08:22:58;;;;;;;17.30;9.13;;;12.30;99.90;;;12.48;69.02;100965.03;6147471;22;97168;-47
2023/02/23 08:25:26;;;;;;;16.57;8.40;;;12.30;99.90;;;12.49;69.26;100964.97;6145909;22;98360;-44
2023/02/23 08:27:52;;;;;;;17.63;8.03;;;12.30;99.90;;;12.48;68.92;100965.91;6147187;22;97747;-48
2023/02/23 08:30:23;;;;;;;19.87;8.60;;;12.30;99.90;;;12.57;67.82;100969.94;6146866;22;97266;-46
2023/02/23 08:32:49;;;;;;;16.97;8.40;;;12.40;99.90;;;12.51;68.57;100975.50;6123430;22;97189;-46
2023/02/23 08:35:18;;;;;;;19.47;8.80;;;12.40;99.90;;;12.68;66.61;100962.47;6146039;22;97576;-46
2023/02/23 08:37:45;;;;;;;19.23;9.47;;;12.50;99.90;;;12.58;68.50;100966.38;6148272;22;96987;-47
2023/02/23 08:40:14;;;;;;;19.17;8.43;;;12.40;99.90;;;12.55;68.84;100973.59;6145514;22;97179;-48
2023/02/23 08:42:41;;;;;;;14.73;7.30;;;12.40;99.90;;;12.51;68.79;100972.84;6123120;22;97469;-45
2023/02/23 08:45:07;;;;;;;22.37;9.50;;;12.40;99.90;;;12.48;68.63;100975.63;6123039;22;97285;-49
2023/02/23 08:47:35;;;;;;;15.33;8.37;;;12.30;99.90;;;12.46;69.03;100977.47;6145928;22;96538;-46
2023/02/23 08:50:00;;;;;;;19.70;7.73;;;12.30;99.90;;;12.42;69.32;100983.78;6145393;22;97357;-46
2023/02/23 08:52:27;;;;;;;14.57;7.63;;;12.30;99.90;;;12.41;68.81;100979.41;6141923;22;98498;-49
2023/02/23 08:54:55;;;;;;;14.33;7.00;;;12.30;99.90;;;12.39;69.34;100986.53;6144266;22;97296;-45
2023/02/23 08:57:20;;;;;;;15.17;8.03;;;12.30;99.90;;;12.40;68.90;100982.97;6141115;22;97222;-50
2023/02/23 08:59:46;;;;;;;14.40;7.30;;;12.20;99.90;;;12.38;69.72;100987.47;6147832;22;97139;-49
2023/02/23 09:02:13;;;;;;;13.27;7.30;;;12.20;99.90;;;12.46;68.20;100982.75;6145667;22;100000;-45
2023/02/23 09:04:42;;;;;;;17.33;7.40;;;12.30;99.90;;;12.46;69.13;100988.03;6122364;22;96881;-50
2023/02/23 09:07:14;;;;;;;15.37;7.90;;;12.30;99.90;;;12.45;68.64;100991.63;6145361;22;98095;-54
2023/02/23 09:09:40;;;;;;;15.43;7.03;;;12.30;99.90;;;12.49;68.86;100988.78;6150871;22;97042;-46
2023/02/23 09:12:06;;;;;;;14.67;7.63;;;12.30;99.90;;;12.46;69.25;100998.63;6151084;22;97426;-49
2023/02/23 09:14:31;;;;;;;15.77;7.67;;;12.30;99.90;;;12.45;69.36;100997.78;6147204;22;97488;-45
2023/02/23 09:16:58;;;;;;;11.90;6.97;;;12.30;99.90;;;12.43;69.66;100993.44;6147846;22;96856;-45
2023/02/23 09:19:26;;;;;;;16.00;7.83;;;12.30;99.90;;;12.40;70.02;100996.19;6146329;22;97451;-45
2023/02/23 09:21:52;;;;;;;11.57;7.13;;;12.30;99.90;;;12.40;69.61;100994.41;6148293;22;97147;-47
2023/02/23 09:24:20;;;;;;;17.27;8.57;;;12.20;99.90;;;12.39;70.25;101002.41;6144759;22;99520;-46
2023/02/23 09:26:48;;;;;;;12.17;7.10;;;12.20;99.90;;;12.35;69.63;101000.81;6150729;22;97400;-45
2023/02/23 09:29:14;;;;;;;14.73;6.57;;;12.20;99.90;;;12.33;70.40;101002.66;6146305;22;97149;-49
2023/02/23 09:31:39;;;;;;;13.07;6.47;;;12.20;99.90;;;12.34;70.14;101002.59;6150115;22;98616;-46
2023/02/23 09:34:08;;;;;;;11.83;7.60;;;12.20;99.90;;;12.36;70.03;101002.53;6151195;22;97046;-46
2023/02/23 09:36:34;;;;;;;13.50;7.67;;;12.20;99.90;;;12.39;70.12;101002.41;6147790;22;97031;-53
2023/02/23 09:39:00;;;;;;;11.13;6.80;;;12.30;99.90;;;12.38;70.51;100998.03;6138216;22;96987;-52
2023/02/23 09:41:38;;;;;;;10.93;6.33;;;12.30;99.90;;;12.40;70.04;101012.06;6122237;22;97936;-57
2023/02/23 09:44:28;;;;;;;14.33;7.37;;;12.30;99.90;;;12.38;70.50;101011.28;6128871;22;97560;-55
2023/02/23 09:47:48;;;;;;;14.60;6.50;;;12.30;99.90;;;12.40;70.03;101014.72;6095364;22;98015;-47
2023/02/23 09:50:24;;;;;;;11.50;6.73;;;12.30;99.90;;;12.41;69.96;101016.44;6095738;22;97477;-44
2023/02/23 09:53:11;;;;;;;12.53;6.57;;;12.30;99.90;;;12.45;70.05;101018.06;6101157;22;97649;-48
2023/02/23 09:55:40;;;;;;;16.43;6.97;;;12.30;99.90;;;12.47;70.01;101022.38;6125613;22;100930;-45
2023/02/23 09:58:32;;;;;;;12.70;7.83;;;12.40;99.90;;;12.66;68.64;101019.88;6100630;22;96972;-46
2023/02/23 10:01:01;;;;;;;14.77;7.67;;;12.50;99.90;;;12.77;67.70;101020.34;6123021;22;97519;-46
2023/02/23 10:03:34;;;;;;;10.50;6.00;;;12.60;99.90;;;12.77;68.08;101027.41;6127148;22;97077;-48
2023/02/23 10:06:12;;;;;;;17.47;7.33;;;12.60;99.90;;;12.70;69.25;101029.44;6099049;22;97515;-45
2023/02/23 10:08:50;;;;;;;11.43;6.67;;;12.60;99.90;;;12.67;68.64;101034.84;6095571;22;97713;-46
2023/02/23 10:11:34;;;;;;;10.70;5.90;;;12.50;99.90;;;12.68;68.40;101033.91;6122812;22;97967;-44
2023/02/23 10:14:46;;;;;;;16.43;7.67;;;12.60;99.90;;;12.76;68.46;101034.50;6099783;22;97433;-49
2023/02/23 10:17:28;;;;;;;13.07;7.53;;;12.70;99.90;;;12.85;66.63;101032.41;6120040;22;101095;-46
2023/02/23 10:20:21;;;;;;;12.10;6.77;;;12.80;99.90;;;12.77;68.22;101046.81;6129058;22;97574;-48
2023/02/23 10:22:48;;;;;;;15.53;6.67;;;12.70;99.90;;;12.96;65.54;101040.78;6097702;22;97255;-48
2023/02/23 10:25:25;;;;;;;14.60;6.83;;;12.80;99.90;;;13.02;65.80;101040.56;6088459;22;99503;-45
2023/02/23 10:27:54;;;;;;;10.53;6.90;;;12.90;99.90;;;13.00;66.58;101037.09;6128518;22;97786;-50
2023/02/23 10:30:27;;;;;;;15.33;7.17;;;12.90;99.90;;;13.04;66.42;101044.00;6098529;22;98000;-47
2023/02/23 10:33:15;;;;;;;12.00;6.43;;;12.90;99.90;;;13.17;64.42;101045.25;6128394;22;96858;-45
2023/02/23 10:35:44;;;;;;;11.00;6.07;;;13.00;99.90;;;13.15;66.08;101047.06;6047431;22;101465;-45
2023/02/23 10:38:18;;;;;;;14.30;6.73;;;13.00;99.90;;;13.18;65.25;101052.31;6119490;22;97492;-48
2023/02/23 10:40:52;;;;;;;13.20;5.40;;;13.10;99.90;;;13.39;62.87;101062.03;6131805;22;97476;-49
2023/02/23 10:43:25;;;;;;;13.30;6.20;;;13.30;99.90;;;13.51;63.80;101054.50;6091975;22;96911;-44
2023/02/23 10:45:52;;;;;;;15.23;6.67;;;13.50;99.90;;;13.42;64.15;101061.03;6102254;22;99592;-45
2023/02/23 10:48:47;;;;;;;14.40;6.43;;;13.40;99.90;;;13.63;61.86;101064.59;6121942;22;98045;-45
2023/02/23 10:51:21;;;;;;;13.20;6.73;;;13.50;99.90;;;13.70;62.16;101055.44;6118581;22;97748;-49
2023/02/23 10:53:47;;;;;;;14.40;7.03;;;13.70;99.90;;;13.64;62.94;101064.53;6117526;22;97346;-48
2023/02/23 10:56:18;;;;;;;15.53;6.07;;;13.60;99.90;;;13.53;63.27;101060.59;6145144;22;98731;-50
2023/02/23 10:58:54;;;;;;;15.50;6.87;;;13.50;99.90;;;13.42;63.93;101055.72;6149986;22;97461;-45
2023/02/23 11:01:44;;;;;;;14.87;7.00;;;13.40;99.90;;;13.29;64.76;101055.38;6144348;22;97291;-49
2023/02/23 11:04:25;;;;;;;12.33;7.53;;;13.20;99.90;;;13.18;65.39;101049.66;6146994;22;97043;-48
2023/02/23 11:07:07;;;;;;;14.87;7.10;;;13.10;99.90;;;13.10;65.93;101054.34;6152575;22;96921;-49
2023/02/23 11:09:34;;;;;;;14.83;7.60;;;13.00;99.90;;;12.97;65.85;101058.41;6147930;22;98535;-46
2023/02/23 11:12:03;;;;;;;14.60;7.83;;;12.90;99.90;;;12.93;65.99;101057.66;6151483;22;97098;-49
2023/02/23 11:14:31;;;;;;;19.57;8.43;;;12.90;99.90;;;12.88;66.20;101048.19;6147945;22;97433;-49
2023/02/23 11:16:59;;;;;;;15.07;6.63;;;12.80;99.90;;;12.87;66.43;101047.31;6152644;22;96910;-45
2023/02/23 11:19:37;;;;;;;13.80;7.03;;;12.80;99.90;;;12.84;66.71;101058.00;6148640;22;97493;-48
2023/02/23 11:22:11;;;;;;;15.97;7.13;;;12.80;99.90;;;12.78;66.96;101059.13;6150843;22;97058;-47
2023/02/23 11:24:40;;;;;;;16.13;6.20;;;12.80;99.90;;;12.73;66.83;101061.09;6123413;22;97477;-45
2023/02/23 11:27:19;;;;;;;18.33;6.80;;;12.70;99.90;;;12.70;67.37;101062.97;6126524;22;97427;-51
2023/02/23 11:29:47;;;;;;;11.73;6.00;;;12.70;99.90;;;12.62;67.66;101050.03;6122813;22;99638;-44
2023/02/23 11:32:18;;;;;;;12.33;6.10;;;12.60;99.90;;;12.55;67.28;101056.47;6148514;22;97108;-52
2023/02/23 11:34:47;;;;;;;15.37;6.47;;;12.50;99.90;;;12.53;67.29;101055.66;6152003;22;98711;-48
2023/02/23 11:37:13;;;;;;;15.77;6.97;;;12.50;99.90;;;12.52;67.52;101056.59;6121261;22;97280;-46
2023/02/23 11:39:53;;;;;;;17.03;6.47;;;12.50;99.90;;;12.55;67.51;101059.13;6153530;22;96917;-47
2023/02/23 11:42:21;;;;;;;13.77;6.40;;;12.50;99.90;;;12.57;66.98;101054.63;6150855;22;98624;-47